Terminal Aerodrome Forecast
Issued by NWS

Home | Current Version | Previous Version | Graphics & Text | Print | Product List | Glossary On
Versions: 1 2 3 4 5 6 7 8 9 10
000
FTUS45 KGGW 250800 AAA
TAFSDY
TAF AMD
KSDY 250840Z 2509/2606 32012KT P6SM BKN025
     FM251200 33013KT P6SM BKN015
     FM252100 33012KT P6SM BKN050
     FM260100 VRB06KT P6SM SKC
      AMD LTD TO CLD VIS AND WIND=

USA.gov is the U.S. government's official web portal to all federal, state and local government web resources and services.